createdAt,value
2018-06-25T00:01:14.612Z,14.90
2018-06-25T00:03:43.196Z,14.90
2018-06-25T00:06:11.869Z,14.90
2018-06-25T00:08:40.334Z,14.90
2018-06-25T00:11:08.769Z,14.90
2018-06-25T00:13:37.190Z,14.80
2018-06-25T00:16:06.220Z,14.90
2018-06-25T00:18:34.670Z,15.00
2018-06-25T00:21:03.155Z,15.00
2018-06-25T00:23:31.594Z,15.00
2018-06-25T00:26:00.000Z,15.00
2018-06-25T00:28:28.449Z,15.00
2018-06-25T00:30:56.866Z,15.00
2018-06-25T00:33:25.585Z,15.00
2018-06-25T00:35:54.031Z,15.00
2018-06-25T00:38:22.450Z,15.00
2018-06-25T00:40:50.904Z,15.00
2018-06-25T00:43:19.374Z,15.10
2018-06-25T00:45:47.810Z,15.00
2018-06-25T00:48:16.231Z,15.00
2018-06-25T00:50:44.658Z,15.00
2018-06-25T00:53:13.129Z,15.00
2018-06-25T00:55:41.537Z,15.00
2018-06-25T00:58:10.575Z,15.00
2018-06-25T01:00:38.998Z,15.00
2018-06-25T01:03:07.450Z,14.90
2018-06-25T01:05:35.936Z,14.90
2018-06-25T01:08:04.365Z,14.90
2018-06-25T01:10:32.834Z,14.90
2018-06-25T01:13:01.266Z,14.90
2018-06-25T01:15:29.676Z,14.90
2018-06-25T01:17:58.120Z,14.90
2018-06-25T01:20:26.568Z,14.90
2018-06-25T01:22:55.028Z,14.90
2018-06-25T01:25:23.494Z,14.90
2018-06-25T01:27:51.912Z,14.90
2018-06-25T01:30:20.392Z,14.90
2018-06-25T01:32:48.828Z,14.90
2018-06-25T01:35:17.291Z,14.80
2018-06-25T01:37:45.734Z,14.90
2018-06-25T01:40:14.165Z,14.80
2018-06-25T01:42:42.617Z,14.80
2018-06-25T01:45:11.062Z,14.70
2018-06-25T01:47:39.515Z,14.70
2018-06-25T01:50:07.958Z,14.70
2018-06-25T01:52:36.420Z,14.70
2018-06-25T01:55:04.894Z,14.70
2018-06-25T01:57:33.334Z,14.70
2018-06-25T02:00:01.796Z,14.70
2018-06-25T02:04:58.316Z,14.70
2018-06-25T02:07:26.752Z,14.60
2018-06-25T02:09:55.197Z,14.50
2018-06-25T02:12:23.649Z,14.50
2018-06-25T02:14:52.082Z,14.40
2018-06-25T02:17:20.505Z,14.40
2018-06-25T02:19:48.951Z,14.40
2018-06-25T02:22:17.404Z,14.30
2018-06-25T02:24:45.856Z,14.20
2018-06-25T02:27:14.274Z,14.20
2018-06-25T02:29:42.852Z,14.10
2018-06-25T02:32:11.286Z,14.10
2018-06-25T02:34:39.753Z,14.10
2018-06-25T02:37:08.212Z,14.10
2018-06-25T02:39:36.628Z,14.10
2018-06-25T02:42:05.062Z,14.00
2018-06-25T02:44:33.516Z,14.00
2018-06-25T02:47:01.961Z,13.90
2018-06-25T02:49:30.397Z,13.80
2018-06-25T02:51:58.853Z,13.70
2018-06-25T02:54:27.272Z,13.70
2018-06-25T02:59:23.815Z,13.80
2018-06-25T03:01:52.424Z,13.80
2018-06-25T03:04:20.845Z,13.70
2018-06-25T03:06:49.288Z,13.70
2018-06-25T03:09:17.705Z,13.70
2018-06-25T03:11:46.170Z,13.70
2018-06-25T03:14:14.616Z,13.60
2018-06-25T03:16:43.045Z,13.60
2018-06-25T03:19:11.480Z,13.60
2018-06-25T03:21:40.619Z,13.50
2018-06-25T03:24:09.190Z,13.50
2018-06-25T03:26:37.671Z,13.40
2018-06-25T03:29:06.135Z,13.40
2018-06-25T03:31:34.920Z,13.40
2018-06-25T03:34:03.430Z,13.50
2018-06-25T03:36:31.865Z,13.50
2018-06-25T03:39:00.301Z,13.50
2018-06-25T03:41:28.722Z,13.50
2018-06-25T03:43:57.148Z,13.50
2018-06-25T03:46:25.630Z,13.40
2018-06-25T03:48:54.094Z,13.50
2018-06-25T03:51:23.328Z,13.40
2018-06-25T03:53:51.758Z,13.30
2018-06-25T03:56:20.193Z,13.30
2018-06-25T03:58:48.664Z,13.20
2018-06-25T04:01:17.080Z,13.20
2018-06-25T04:03:45.930Z,13.20
2018-06-25T04:06:14.393Z,13.20
2018-06-25T04:08:43.009Z,13.20
2018-06-25T04:11:11.434Z,13.20
2018-06-25T04:13:39.999Z,13.20
2018-06-25T04:16:08.713Z,13.20
2018-06-25T04:18:37.212Z,13.20
2018-06-25T04:21:05.997Z,13.10
2018-06-25T04:23:34.461Z,13.10
2018-06-25T04:26:03.042Z,13.10
2018-06-25T04:28:31.511Z,13.00
2018-06-25T04:30:59.913Z,13.10
2018-06-25T04:33:28.365Z,13.00
2018-06-25T04:35:56.823Z,13.00
2018-06-25T04:38:25.336Z,13.00
2018-06-25T04:40:53.829Z,13.00
2018-06-25T04:43:22.934Z,13.00
2018-06-25T04:45:51.360Z,13.00
2018-06-25T04:48:19.813Z,13.00
2018-06-25T04:50:48.254Z,13.10
2018-06-25T04:53:16.738Z,13.00
2018-06-25T04:55:45.168Z,13.00
2018-06-25T04:58:13.590Z,13.00
2018-06-25T05:00:42.030Z,13.00
2018-06-25T05:03:10.608Z,12.90
2018-06-25T05:05:39.116Z,13.00
2018-06-25T05:08:07.538Z,13.00
2018-06-25T05:10:35.960Z,13.00
2018-06-25T05:13:04.433Z,13.00
2018-06-25T05:15:32.908Z,13.00
2018-06-25T05:18:01.387Z,13.00
2018-06-25T05:20:30.007Z,13.10
2018-06-25T05:22:58.449Z,13.10
2018-06-25T05:25:26.919Z,13.20
2018-06-25T05:27:55.352Z,13.20
2018-06-25T05:30:23.813Z,13.20
2018-06-25T05:32:52.253Z,13.20
2018-06-25T05:35:20.718Z,13.20
2018-06-25T05:37:49.198Z,13.20
2018-06-25T05:40:17.635Z,13.20
2018-06-25T05:42:46.089Z,13.10
2018-06-25T05:45:14.535Z,13.20
2018-06-25T05:47:42.973Z,13.20
2018-06-25T05:50:11.420Z,13.30
2018-06-25T05:52:39.846Z,13.20
2018-06-25T05:55:08.352Z,13.30
2018-06-25T05:57:37.201Z,13.30
2018-06-25T06:00:05.878Z,13.30
2018-06-25T06:02:34.395Z,13.20
2018-06-25T06:05:02.845Z,13.20
2018-06-25T06:07:31.351Z,13.20
2018-06-25T06:09:59.791Z,13.40
2018-06-25T06:12:28.234Z,13.40
2018-06-25T06:14:56.684Z,13.50
2018-06-25T06:17:25.173Z,13.60
2018-06-25T06:22:21.815Z,13.70
2018-06-25T06:27:18.440Z,13.70
2018-06-25T06:29:46.869Z,13.80
2018-06-25T06:32:15.333Z,13.70
2018-06-25T06:34:43.750Z,13.70
2018-06-25T06:37:12.172Z,13.60
2018-06-25T06:39:40.673Z,13.50
2018-06-25T06:42:09.097Z,13.40
2018-06-25T06:44:37.590Z,13.30
2018-06-25T06:47:06.030Z,13.40
2018-06-25T06:49:34.453Z,13.40
2018-06-25T06:52:02.943Z,13.40
2018-06-25T06:54:31.366Z,13.30
2018-06-25T06:56:59.906Z,13.30
2018-06-25T06:59:28.411Z,13.30
2018-06-25T07:01:56.899Z,13.30
2018-06-25T07:04:25.365Z,13.30
2018-06-25T07:06:53.799Z,13.30
2018-06-25T07:09:22.301Z,13.30
2018-06-25T07:11:50.802Z,13.30
2018-06-25T07:14:19.251Z,13.30
2018-06-25T07:16:47.705Z,13.30
2018-06-25T07:19:16.164Z,13.30
2018-06-25T07:21:44.622Z,13.40
2018-06-25T07:24:13.070Z,13.40
2018-06-25T07:26:41.509Z,13.30
2018-06-25T07:29:09.996Z,13.30
2018-06-25T07:31:39.380Z,13.40
2018-06-25T07:34:07.865Z,13.40
2018-06-25T07:36:36.319Z,13.40
2018-06-25T07:39:07.867Z,13.50
2018-06-25T07:41:36.332Z,13.50
2018-06-25T07:44:04.834Z,13.60
2018-06-25T07:46:33.260Z,13.60
2018-06-25T07:49:01.701Z,13.60
2018-06-25T07:51:30.187Z,13.50
2018-06-25T07:53:58.623Z,13.50
2018-06-25T07:56:27.079Z,13.60
2018-06-25T07:58:55.540Z,13.60
2018-06-25T08:01:23.961Z,13.70
2018-06-25T08:03:52.418Z,13.80
2018-06-25T08:06:20.840Z,13.90
2018-06-25T08:08:49.277Z,13.90
2018-06-25T08:11:17.721Z,14.00
2018-06-25T08:13:46.180Z,14.10
2018-06-25T08:16:14.724Z,14.10
2018-06-25T08:18:44.033Z,13.90
2018-06-25T08:21:12.493Z,13.80
2018-06-25T08:26:09.132Z,13.80
2018-06-25T08:28:37.596Z,13.90
2018-06-25T08:31:06.081Z,14.00
2018-06-25T08:33:34.494Z,14.10
2018-06-25T08:36:02.950Z,14.00
2018-06-25T08:38:31.365Z,14.00
2018-06-25T08:40:59.866Z,14.10
2018-06-25T08:43:28.372Z,13.90
2018-06-25T08:45:56.805Z,13.90
2018-06-25T08:48:25.296Z,13.90
2018-06-25T08:50:53.738Z,13.70
2018-06-25T08:53:22.198Z,14.00
2018-06-25T08:55:50.638Z,14.10
2018-06-25T08:58:19.592Z,14.30
2018-06-25T09:00:48.078Z,14.60
2018-06-25T09:03:16.542Z,14.50
2018-06-25T09:05:45.042Z,14.70
2018-06-25T09:08:13.502Z,14.80
2018-06-25T09:10:41.949Z,14.90
2018-06-25T09:13:10.437Z,14.90
2018-06-25T09:15:38.938Z,14.90
2018-06-25T09:18:07.368Z,15.00
2018-06-25T09:20:35.853Z,14.90
2018-06-25T09:23:04.273Z,14.60
2018-06-25T09:25:32.776Z,14.80
2018-06-25T09:30:33.395Z,15.30
2018-06-25T09:33:02.323Z,15.30
2018-06-25T09:35:30.933Z,15.10
2018-06-25T09:37:59.394Z,15.10
2018-06-25T09:40:27.861Z,15.20
2018-06-25T09:42:56.369Z,15.20
2018-06-25T09:45:25.175Z,15.20
2018-06-25T09:47:53.686Z,15.10
2018-06-25T09:50:22.153Z,14.80
2018-06-25T09:52:50.589Z,15.20
2018-06-25T09:57:47.237Z,15.50
2018-06-25T10:00:21.059Z,15.30
2018-06-25T10:02:49.537Z,15.20
2018-06-25T10:05:18.015Z,14.90
2018-06-25T10:07:46.531Z,15.20
2018-06-25T10:10:14.998Z,15.50
2018-06-25T10:12:43.472Z,15.40
2018-06-25T10:15:12.097Z,15.30
2018-06-25T10:17:40.559Z,15.40
2018-06-25T10:20:09.017Z,15.60
2018-06-25T10:22:37.491Z,15.70
2018-06-25T10:25:06.163Z,15.70
2018-06-25T10:27:34.688Z,15.40
2018-06-25T10:30:03.316Z,15.70
2018-06-25T10:32:31.794Z,15.50
2018-06-25T10:35:00.227Z,15.50
2018-06-25T10:37:29.113Z,15.70
2018-06-25T10:39:57.859Z,15.70
2018-06-25T10:42:26.929Z,16.00
2018-06-25T10:44:55.726Z,16.00
2018-06-25T10:47:24.477Z,15.80
2018-06-25T10:49:53.019Z,15.90
2018-06-25T10:52:21.509Z,15.80
2018-06-25T10:54:49.994Z,15.80
2018-06-25T10:57:18.514Z,15.60
2018-06-25T10:59:46.999Z,16.20
2018-06-25T11:02:15.463Z,16.30
2018-06-25T11:04:43.933Z,16.30
2018-06-25T11:07:12.662Z,16.60
2018-06-25T11:09:41.028Z,16.80
2018-06-25T11:12:09.525Z,17.10
2018-06-25T11:14:37.981Z,16.90
2018-06-25T11:17:06.484Z,16.90
2018-06-25T11:19:34.912Z,16.80
2018-06-25T11:22:03.384Z,16.70
2018-06-25T11:24:32.084Z,16.90
2018-06-25T11:27:00.739Z,17.20
2018-06-25T11:29:29.723Z,17.60
2018-06-25T11:31:58.960Z,17.70
2018-06-25T11:34:27.592Z,18.00
2018-06-25T11:36:56.115Z,18.30
2018-06-25T11:39:24.684Z,18.50
2018-06-25T11:41:53.474Z,18.20
2018-06-25T11:44:22.055Z,18.40
2018-06-25T11:46:50.603Z,18.80
2018-06-25T11:49:19.294Z,19.20
2018-06-25T11:51:47.822Z,19.20
2018-06-25T11:54:16.993Z,19.10
2018-06-25T11:56:45.563Z,19.30
2018-06-25T11:59:14.031Z,19.60
2018-06-25T12:01:44.148Z,19.70
2018-06-25T12:04:12.839Z,19.70
2018-06-25T12:06:41.360Z,19.60
2018-06-25T12:09:11.171Z,19.50
2018-06-25T12:11:39.973Z,19.30
2018-06-25T12:14:08.793Z,19.60
2018-06-25T12:16:37.587Z,19.40
2018-06-25T12:19:06.168Z,19.90
2018-06-25T12:21:34.571Z,20.00
2018-06-25T12:24:03.035Z,20.30
2018-06-25T12:26:31.590Z,20.20
2018-06-25T12:29:00.061Z,20.30
2018-06-25T12:31:28.592Z,19.90
2018-06-25T12:33:57.133Z,19.90
2018-06-25T12:36:25.856Z,20.00
2018-06-25T12:38:54.282Z,20.00
2018-06-25T12:41:22.882Z,20.20
2018-06-25T12:43:51.636Z,20.50
2018-06-25T12:46:20.103Z,20.90
2018-06-25T12:48:48.839Z,20.90
2018-06-25T12:51:17.256Z,21.00
2018-06-25T12:53:45.757Z,20.80
2018-06-25T12:56:14.198Z,20.90
2018-06-25T12:58:42.655Z,21.40
2018-06-25T13:01:11.124Z,21.20
2018-06-25T13:03:39.638Z,21.90
2018-06-25T13:06:08.098Z,21.30
2018-06-25T13:08:36.536Z,21.50
2018-06-25T13:11:05.083Z,22.20
2018-06-25T13:13:33.587Z,22.80
2018-06-25T13:16:02.188Z,22.20
2018-06-25T13:18:30.706Z,23.00
2018-06-25T13:20:59.209Z,23.90
2018-06-25T13:23:27.728Z,24.70
2018-06-25T13:25:56.308Z,24.60
2018-06-25T13:28:24.948Z,24.30
2018-06-25T13:30:53.541Z,22.60
2018-06-25T13:33:22.206Z,22.90
2018-06-25T13:35:50.836Z,21.70
2018-06-25T13:38:19.389Z,22.80
2018-06-25T13:40:47.946Z,23.10
2018-06-25T13:43:16.443Z,22.90
2018-06-25T13:45:44.971Z,22.60
2018-06-25T13:48:13.458Z,22.60
2018-06-25T13:50:42.089Z,24.00
2018-06-25T13:53:10.701Z,25.50
2018-06-25T13:55:39.194Z,26.10
2018-06-25T13:58:08.607Z,26.80
2018-06-25T14:00:38.405Z,26.50
2018-06-25T14:03:06.865Z,26.70
2018-06-25T14:05:35.353Z,26.60
2018-06-25T14:08:04.043Z,25.30
2018-06-25T14:10:32.630Z,24.70
2018-06-25T14:13:01.976Z,25.60
2018-06-25T14:15:30.527Z,26.90
2018-06-25T14:17:59.401Z,27.30
2018-06-25T14:20:28.480Z,27.90
2018-06-25T14:22:57.119Z,26.90
2018-06-25T14:25:25.909Z,24.80
2018-06-25T14:27:59.718Z,24.60
2018-06-25T14:30:33.713Z,24.40
2018-06-25T14:33:03.715Z,23.50
2018-06-25T14:35:32.822Z,23.10
2018-06-25T14:38:01.523Z,23.10
2018-06-25T14:40:30.209Z,22.40
2018-06-25T14:42:59.988Z,22.10
2018-06-25T14:45:29.118Z,21.80
2018-06-25T14:47:57.789Z,21.60
2018-06-25T14:50:27.400Z,21.70
2018-06-25T14:52:56.021Z,21.70
2018-06-25T14:55:24.668Z,21.70
2018-06-25T14:57:54.683Z,21.70
2018-06-25T15:00:23.374Z,21.60
2018-06-25T15:05:22.056Z,21.50
2018-06-25T15:07:50.811Z,21.50
2018-06-25T15:10:20.193Z,21.50
2018-06-25T15:12:50.191Z,21.20
2018-06-25T15:15:18.739Z,21.30
2018-06-25T15:17:47.400Z,21.60
2018-06-25T15:20:15.881Z,21.70
2018-06-25T15:22:44.407Z,21.50
2018-06-25T15:25:14.152Z,21.70
2018-06-25T15:27:43.262Z,21.60
2018-06-25T15:30:11.921Z,21.30
2018-06-25T15:32:40.438Z,21.20
2018-06-25T15:35:10.261Z,21.20
2018-06-25T15:37:39.514Z,21.50
2018-06-25T15:40:09.178Z,21.70
2018-06-25T15:42:38.159Z,21.60
2018-06-25T15:45:08.689Z,21.70
2018-06-25T15:47:37.374Z,21.80
2018-06-25T15:50:06.517Z,21.80
2018-06-25T15:52:35.008Z,21.60
2018-06-25T15:55:03.611Z,21.70
2018-06-25T15:57:32.385Z,21.70
2018-06-25T16:00:02.048Z,21.80
2018-06-25T16:02:30.562Z,21.90
2018-06-25T16:04:59.289Z,21.70
2018-06-25T16:09:59.042Z,21.50
2018-06-25T16:12:27.640Z,21.20
2018-06-25T16:14:57.215Z,21.40
2018-06-25T16:17:26.251Z,21.40
2018-06-25T16:19:54.845Z,21.10
2018-06-25T16:22:23.546Z,21.00
2018-06-25T16:24:52.075Z,21.20
2018-06-25T16:27:20.510Z,21.00
2018-06-25T16:29:48.999Z,20.70
2018-06-25T16:32:17.487Z,20.50
2018-06-25T16:34:45.911Z,20.20
2018-06-25T16:37:14.607Z,20.20
2018-06-25T16:39:43.146Z,19.90
2018-06-25T16:42:11.637Z,20.20
2018-06-25T16:44:40.089Z,20.30
2018-06-25T16:47:08.581Z,20.40
2018-06-25T16:49:37.108Z,20.30
2018-06-25T16:52:05.582Z,20.40
2018-06-25T16:54:34.474Z,20.20
2018-06-25T16:57:02.928Z,20.20
2018-06-25T16:59:31.399Z,20.00
2018-06-25T17:02:00.351Z,19.80
2018-06-25T17:04:28.902Z,19.70
2018-06-25T17:06:57.444Z,19.60
2018-06-25T17:09:25.981Z,19.70
2018-06-25T17:11:54.397Z,19.70
2018-06-25T17:14:23.042Z,19.60
2018-06-25T17:16:51.634Z,19.30
2018-06-25T17:19:20.235Z,19.40
2018-06-25T17:21:49.585Z,19.20
2018-06-25T17:24:18.163Z,19.30
2018-06-25T17:26:46.680Z,19.40
2018-06-25T17:29:15.134Z,19.30
2018-06-25T17:31:45.055Z,19.30
2018-06-25T17:34:13.608Z,19.30
2018-06-25T17:36:42.178Z,19.30
2018-06-25T17:39:10.658Z,19.20
2018-06-25T17:41:39.937Z,18.90
2018-06-25T17:44:08.467Z,19.00
2018-06-25T17:46:36.999Z,18.90
2018-06-25T17:49:05.599Z,18.90
2018-06-25T17:51:34.676Z,18.70
2018-06-25T17:54:03.175Z,18.40
2018-06-25T17:56:32.375Z,18.50
2018-06-25T17:59:00.902Z,18.60
2018-06-25T18:01:29.467Z,18.60
2018-06-25T18:03:58.002Z,18.60
2018-06-25T18:06:26.493Z,18.60
2018-06-25T18:08:55.157Z,18.60
2018-06-25T18:11:24.434Z,18.50
2018-06-25T18:13:52.939Z,18.40
2018-06-25T18:16:21.754Z,18.50
2018-06-25T18:18:50.353Z,18.50
2018-06-25T18:21:18.866Z,18.50
2018-06-25T18:23:47.394Z,18.40
2018-06-25T18:26:15.913Z,18.40
2018-06-25T18:28:44.452Z,18.40
2018-06-25T18:31:13.060Z,18.30
2018-06-25T18:33:41.665Z,18.20
2018-06-25T18:36:10.247Z,18.10
2018-06-25T18:38:38.733Z,18.10
2018-06-25T18:41:07.215Z,18.10
2018-06-25T18:43:35.707Z,18.10
2018-06-25T18:46:04.310Z,18.00
2018-06-25T18:48:32.814Z,17.90
2018-06-25T18:51:01.377Z,17.80
2018-06-25T18:53:29.841Z,17.80
2018-06-25T18:55:58.411Z,17.70
2018-06-25T18:58:26.953Z,17.70
2018-06-25T19:00:55.453Z,17.60
2018-06-25T19:03:24.134Z,17.60
2018-06-25T19:05:52.780Z,17.50
2018-06-25T19:08:21.217Z,17.50
2018-06-25T19:10:51.168Z,17.40
2018-06-25T19:13:19.747Z,17.40
2018-06-25T19:15:48.174Z,17.30
2018-06-25T19:18:16.675Z,17.00
2018-06-25T19:20:45.132Z,16.90
2018-06-25T19:23:13.599Z,16.90
2018-06-25T19:25:42.173Z,16.80
2018-06-25T19:28:10.658Z,16.70
2018-06-25T19:30:39.117Z,16.60
2018-06-25T19:33:07.582Z,16.50
2018-06-25T19:35:36.060Z,16.40
2018-06-25T19:38:04.551Z,16.40
2018-06-25T19:40:33.301Z,16.50
2018-06-25T19:43:01.757Z,16.50
2018-06-25T19:45:30.210Z,16.40
2018-06-25T19:47:58.659Z,16.40
2018-06-25T19:50:27.206Z,16.30
2018-06-25T19:52:55.638Z,16.20
2018-06-25T19:55:24.113Z,16.20
2018-06-25T19:57:52.574Z,16.10
2018-06-25T20:00:21.001Z,16.10
2018-06-25T20:02:49.654Z,16.10
2018-06-25T20:05:17.906Z,16.00
2018-06-25T20:07:46.366Z,16.00
2018-06-25T20:10:14.787Z,16.00
2018-06-25T20:12:43.228Z,15.90
2018-06-25T20:15:11.799Z,15.80
2018-06-25T20:17:40.245Z,15.80
2018-06-25T20:20:09.317Z,15.80
2018-06-25T20:22:37.774Z,15.80
2018-06-25T20:25:07.680Z,15.80
2018-06-25T20:27:36.314Z,15.70
2018-06-25T20:30:05.821Z,15.70
2018-06-25T20:32:34.308Z,15.70
2018-06-25T20:35:02.786Z,15.70
2018-06-25T20:37:31.218Z,15.70
2018-06-25T20:42:27.776Z,15.60
2018-06-25T20:44:56.237Z,15.60
2018-06-25T20:47:24.712Z,15.60
2018-06-25T20:49:53.134Z,15.50
2018-06-25T20:52:21.595Z,15.50
2018-06-25T20:54:50.043Z,15.40
2018-06-25T20:57:18.538Z,15.40
2018-06-25T20:59:47.005Z,15.30
2018-06-25T21:02:15.438Z,15.30
2018-06-25T21:04:44.777Z,15.40
2018-06-25T21:07:13.228Z,15.30
2018-06-25T21:09:41.742Z,15.30
2018-06-25T21:12:10.157Z,15.30
2018-06-25T21:14:38.695Z,15.20
2018-06-25T21:17:07.247Z,15.30
2018-06-25T21:19:35.798Z,15.30
2018-06-25T21:22:04.245Z,15.30
2018-06-25T21:24:32.670Z,15.20
2018-06-25T21:27:01.133Z,15.20
2018-06-25T21:29:29.627Z,15.20
2018-06-25T21:31:58.115Z,15.10
2018-06-25T21:34:26.586Z,15.10
2018-06-25T21:36:55.119Z,15.10
2018-06-25T21:39:23.569Z,15.00
2018-06-25T21:41:52.026Z,15.00
2018-06-25T21:44:20.466Z,15.00
2018-06-25T21:46:48.982Z,15.10
2018-06-25T21:49:17.490Z,15.00
2018-06-25T21:51:45.935Z,15.00
2018-06-25T21:54:14.408Z,15.00
2018-06-25T21:56:42.868Z,14.90
2018-06-25T21:59:11.350Z,15.00
2018-06-25T22:01:39.844Z,15.00
2018-06-25T22:04:08.293Z,14.90
2018-06-25T22:06:36.747Z,14.90
2018-06-25T22:09:08.274Z,14.80
2018-06-25T22:11:36.779Z,14.80
2018-06-25T22:14:05.280Z,14.90
2018-06-25T22:16:33.736Z,14.90
2018-06-25T22:19:02.229Z,14.80
2018-06-25T22:21:31.143Z,14.80
2018-06-25T22:23:59.599Z,14.80
2018-06-25T22:26:28.040Z,14.80
2018-06-25T22:28:56.841Z,14.70
2018-06-25T22:31:25.754Z,14.70
2018-06-25T22:33:54.174Z,14.60
2018-06-25T22:36:22.612Z,14.60
2018-06-25T22:38:51.039Z,14.70
2018-06-25T22:41:19.481Z,14.70
2018-06-25T22:43:48.594Z,14.70
2018-06-25T22:46:17.147Z,14.60
2018-06-25T22:48:45.594Z,14.60
2018-06-25T22:51:14.054Z,14.70
2018-06-25T22:53:42.478Z,14.70
2018-06-25T22:58:39.055Z,14.70
2018-06-25T23:01:07.555Z,14.60
2018-06-25T23:03:36.122Z,14.60
2018-06-25T23:06:04.521Z,14.60
2018-06-25T23:08:32.986Z,14.60
2018-06-25T23:11:01.494Z,14.50
2018-06-25T23:13:29.976Z,14.50
2018-06-25T23:15:58.393Z,14.50
2018-06-25T23:18:26.820Z,14.50
2018-06-25T23:20:55.266Z,14.40
2018-06-25T23:23:23.690Z,14.40
2018-06-25T23:25:52.121Z,14.30
2018-06-25T23:28:20.714Z,14.30
2018-06-25T23:30:49.065Z,14.20
2018-06-25T23:33:17.597Z,14.30
2018-06-25T23:35:46.000Z,14.30
2018-06-25T23:38:14.448Z,14.30
2018-06-25T23:40:42.911Z,14.30
2018-06-25T23:43:11.399Z,14.30
2018-06-25T23:45:39.895Z,14.20
2018-06-25T23:48:08.344Z,14.10
2018-06-25T23:50:36.878Z,14.10
2018-06-25T23:53:05.546Z,14.00
2018-06-25T23:55:33.986Z,14.00
2018-06-25T23:58:02.599Z,14.00
